2026/07/19

Sensor Date Temp./Hum.
h4-hermonville 19-07-2026 - 23:58 19.7°C / 48%
h2-hermonville 19-07-2026 - 23:54 21.2°C / 46%
h1-hermonville 19-07-2026 - 23:54 16.3°C / 58.5%
h3-hermonville 19-07-2026 - 23:50 18.3°C / 52%
h4-hermonville 19-07-2026 - 23:48 19.8°C / 48.5%
h2-hermonville 19-07-2026 - 23:44 21.2°C / 47%
h1-hermonville 19-07-2026 - 23:44 16.5°C / 57.5%
h3-hermonville 19-07-2026 - 23:40 18.6°C / 51.5%
h4-hermonville 19-07-2026 - 23:38 19.8°C / 48%
h2-hermonville 19-07-2026 - 23:34 21.3°C / 46.5%
h1-hermonville 19-07-2026 - 23:34 16.6°C / 57.5%
h3-hermonville 19-07-2026 - 23:30 18.7°C / 51%
h4-hermonville 19-07-2026 - 23:28 19.9°C / 47.5%
h2-hermonville 19-07-2026 - 23:24 21.5°C / 46.5%
h1-hermonville 19-07-2026 - 23:24 16.9°C / 57%
h3-hermonville 19-07-2026 - 23:20 19.1°C / 50%
h4-hermonville 19-07-2026 - 23:18 20.3°C / 47.5%
h2-hermonville 19-07-2026 - 23:14 21.3°C / 47%
h1-hermonville 19-07-2026 - 23:14 17.1°C / 56%
h4-hermonville 19-07-2026 - 23:08 20.4°C / 46.5%
h2-hermonville 19-07-2026 - 23:04 21.9°C / 44.5%
h1-hermonville 19-07-2026 - 23:04 17.4°C / 55%
h3-hermonville 19-07-2026 - 23:00 19.4°C / 49%
h4-hermonville 19-07-2026 - 22:58 20.4°C / 46.5%
h2-hermonville 19-07-2026 - 22:54 21.8°C / 44.5%
h1-hermonville 19-07-2026 - 22:54 17.7°C / 54%
h3-hermonville 19-07-2026 - 22:50 19.6°C / 48%
h4-hermonville 19-07-2026 - 22:48 20.4°C / 45.5%
h2-hermonville 19-07-2026 - 22:44 22.5°C / 43.5%
h1-hermonville 19-07-2026 - 22:44 17.8°C / 52.5%
h3-hermonville 19-07-2026 - 22:40 19.8°C / 47.5%
h4-hermonville 19-07-2026 - 22:38 20.6°C / 45%
h2-hermonville 19-07-2026 - 22:34 22.2°C / 44%
h1-hermonville 19-07-2026 - 22:34 18.1°C / 51.5%
h3-hermonville 19-07-2026 - 22:30 20°C / 46%
h4-hermonville 19-07-2026 - 22:28 20.7°C / 44.5%
h2-hermonville 19-07-2026 - 22:24 22.6°C / 42.5%
h1-hermonville 19-07-2026 - 22:24 18.4°C / 50%
h3-hermonville 19-07-2026 - 22:20 20.3°C / 45%
h4-hermonville 19-07-2026 - 22:18 21°C / 44%
h2-hermonville 19-07-2026 - 22:14 22.5°C / 41%
h1-hermonville 19-07-2026 - 22:14 18.5°C / 49.5%
h3-hermonville 19-07-2026 - 22:10 20.6°C / 44%
h4-hermonville 19-07-2026 - 22:08 21°C / 43.5%
h2-hermonville 19-07-2026 - 22:04 22.9°C / 40.5%
h1-hermonville 19-07-2026 - 22:04 18.9°C / 48%
h3-hermonville 19-07-2026 - 22:00 20.8°C / 44.5%
h2-hermonville 19-07-2026 - 21:54 22.8°C / 40.5%
h1-hermonville 19-07-2026 - 21:54 19.2°C / 47%
h3-hermonville 19-07-2026 - 21:50 20.9°C / 43.5%
h2-hermonville 19-07-2026 - 21:44 23.2°C / 41%
h1-hermonville 19-07-2026 - 21:44 19.4°C / 46%
h3-hermonville 19-07-2026 - 21:40 20.9°C / 43.5%
h2-hermonville 19-07-2026 - 21:34 23.6°C / 40.5%
h1-hermonville 19-07-2026 - 21:34 19.6°C / 46%
h3-hermonville 19-07-2026 - 21:30 21°C / 42.5%
h2-hermonville 19-07-2026 - 21:24 23.7°C / 39.5%
h1-hermonville 19-07-2026 - 21:24 19.9°C / 45.5%
h3-hermonville 19-07-2026 - 21:20 21.2°C / 42%
h2-hermonville 19-07-2026 - 21:14 24°C / 39.5%
h1-hermonville 19-07-2026 - 21:14 20.1°C / 44.5%
h1-hermonville 19-07-2026 - 21:04 20.4°C / 43.5%
h3-hermonville 19-07-2026 - 21:00 21.6°C / 41.5%
h1-hermonville 19-07-2026 - 20:54 20.7°C / 43.5%
h3-hermonville 19-07-2026 - 20:50 21.9°C / 41%
h2-hermonville 19-07-2026 - 20:44 24.5°C / 38.5%
h1-hermonville 19-07-2026 - 20:44 20.9°C / 43%
h3-hermonville 19-07-2026 - 20:40 21.9°C / 41%
h4-hermonville 19-07-2026 - 20:38 22.2°C / 40.5%
h2-hermonville 19-07-2026 - 20:34 24.6°C / 38%
h1-hermonville 19-07-2026 - 20:34 21°C / 43%
h3-hermonville 19-07-2026 - 20:30 22°C / 40%
h4-hermonville 19-07-2026 - 20:28 22.3°C / 40%
h2-hermonville 19-07-2026 - 20:24 24.8°C / 36%
h1-hermonville 19-07-2026 - 20:24 21.3°C / 41.5%
h3-hermonville 19-07-2026 - 20:20 22.3°C / 39.5%
h4-hermonville 19-07-2026 - 20:18 22.5°C / 38.5%
h2-hermonville 19-07-2026 - 20:14 25.2°C / 37.5%
h1-hermonville 19-07-2026 - 20:14 21.4°C / 41%
h3-hermonville 19-07-2026 - 20:10 22.5°C / 39%
h4-hermonville 19-07-2026 - 20:08 22.6°C / 39%
h2-hermonville 19-07-2026 - 20:04 25.8°C / 36.5%
h1-hermonville 19-07-2026 - 20:04 21.6°C / 40%
h3-hermonville 19-07-2026 - 20:00 22.5°C / 39%
h4-hermonville 19-07-2026 - 19:58 22.7°C / 39%
h2-hermonville 19-07-2026 - 19:54 27.1°C / 32%
h1-hermonville 19-07-2026 - 19:54 21.6°C / 41.5%
h3-hermonville 19-07-2026 - 19:50 22.6°C / 39.5%
h4-hermonville 19-07-2026 - 19:48 22.7°C / 39%
h2-hermonville 19-07-2026 - 19:44 28.4°C / 33%
h1-hermonville 19-07-2026 - 19:44 21.6°C / 41.5%
h3-hermonville 19-07-2026 - 19:40 22.5°C / 40.5%
h4-hermonville 19-07-2026 - 19:38 22.9°C / 39.5%
h1-hermonville 19-07-2026 - 19:34 21.6°C / 42.5%
h3-hermonville 19-07-2026 - 19:30 22.7°C / 41%
h4-hermonville 19-07-2026 - 19:28 22.9°C / 40%
h2-hermonville 19-07-2026 - 19:24 26.8°C / 36%
h1-hermonville 19-07-2026 - 19:24 21.5°C / 43.5%
h3-hermonville 19-07-2026 - 19:20 22.8°C / 41%
h2-hermonville 19-07-2026 - 19:14 27.2°C / 35%
h1-hermonville 19-07-2026 - 19:14 21.8°C / 43%
h3-hermonville 19-07-2026 - 19:10 23°C / 40%
h4-hermonville 19-07-2026 - 19:08 23.3°C / 39%
h2-hermonville 19-07-2026 - 19:04 29.1°C / 32%
h1-hermonville 19-07-2026 - 19:04 22.1°C / 41%
h3-hermonville 19-07-2026 - 19:00 23°C / 39%
h2-hermonville 19-07-2026 - 18:54 28.4°C / 32.5%
h1-hermonville 19-07-2026 - 18:54 21.9°C / 41%
h3-hermonville 19-07-2026 - 18:50 23.1°C / 38.5%
h2-hermonville 19-07-2026 - 18:44 28.1°C / 33.5%
h1-hermonville 19-07-2026 - 18:44 22°C / 41.5%
h3-hermonville 19-07-2026 - 18:40 23.2°C / 39.5%
h2-hermonville 19-07-2026 - 18:34 28.4°C / 33.5%
h1-hermonville 19-07-2026 - 18:34 22.3°C / 41.5%
h3-hermonville 19-07-2026 - 18:30 23.2°C / 40%
h4-hermonville 19-07-2026 - 18:28 23.5°C / 39.5%
h2-hermonville 19-07-2026 - 18:24 26.5°C / 36%
h3-hermonville 19-07-2026 - 18:20 22.9°C / 39%
h4-hermonville 19-07-2026 - 18:18 23.5°C / 37%
h2-hermonville 19-07-2026 - 18:14 26.4°C / 35%
h1-hermonville 19-07-2026 - 18:14 22.2°C / 40%
h3-hermonville 19-07-2026 - 18:10 23.2°C / 37.5%
h4-hermonville 19-07-2026 - 18:08 23.6°C / 37.5%
h2-hermonville 19-07-2026 - 18:04 27.9°C / 33%
h3-hermonville 19-07-2026 - 18:00 23.4°C / 37.5%
h4-hermonville 19-07-2026 - 17:58 23.5°C / 37.5%
h2-hermonville 19-07-2026 - 17:54 28.6°C / 32%
h1-hermonville 19-07-2026 - 17:54 22.1°C / 39.5%
h3-hermonville 19-07-2026 - 17:50 23.2°C / 38%
h4-hermonville 19-07-2026 - 17:48 23.2°C / 37.5%
h2-hermonville 19-07-2026 - 17:44 27.8°C / 33%
h1-hermonville 19-07-2026 - 17:44 22.1°C / 39.5%
h3-hermonville 19-07-2026 - 17:40 22.9°C / 38.5%
h4-hermonville 19-07-2026 - 17:38 23.4°C / 39%
h2-hermonville 19-07-2026 - 17:34 27°C / 35%
h1-hermonville 19-07-2026 - 17:34 21.9°C / 41.5%
h3-hermonville 19-07-2026 - 17:30 22.9°C / 38.5%
h4-hermonville 19-07-2026 - 17:28 23.2°C / 38%
h3-hermonville 19-07-2026 - 17:20 23°C / 38.5%
h4-hermonville 19-07-2026 - 17:18 23.1°C / 37.5%
h1-hermonville 19-07-2026 - 17:14 21.9°C / 41.5%
h3-hermonville 19-07-2026 - 17:10 23.1°C / 38.5%
h4-hermonville 19-07-2026 - 17:08 23.3°C / 38%
h1-hermonville 19-07-2026 - 17:04 22.1°C / 40%
h3-hermonville 19-07-2026 - 17:00 23.3°C / 37.5%
h4-hermonville 19-07-2026 - 16:58 23.3°C / 36.5%
h2-hermonville 19-07-2026 - 16:54 26.3°C / 34%
h1-hermonville 19-07-2026 - 16:54 22°C / 38%
h3-hermonville 19-07-2026 - 16:50 23.1°C / 36%
h4-hermonville 19-07-2026 - 16:48 23.3°C / 36.5%
h2-hermonville 19-07-2026 - 16:44 28.1°C / 31.5%
h1-hermonville 19-07-2026 - 16:44 22.6°C / 37.5%
h3-hermonville 19-07-2026 - 16:40 23.4°C / 38%
h4-hermonville 19-07-2026 - 16:38 23.4°C / 36.5%
h2-hermonville 19-07-2026 - 16:34 26.3°C / 33.5%
h1-hermonville 19-07-2026 - 16:34 22°C / 40%
h3-hermonville 19-07-2026 - 16:30 23.4°C / 37.5%
h4-hermonville 19-07-2026 - 16:28 23.6°C / 37%
h2-hermonville 19-07-2026 - 16:24 26°C / 35.5%
h1-hermonville 19-07-2026 - 16:24 21.9°C / 40%
h3-hermonville 19-07-2026 - 16:20 22.9°C / 37.5%
h4-hermonville 19-07-2026 - 16:18 23.3°C / 37%
h2-hermonville 19-07-2026 - 16:14 25.5°C / 36.5%
h1-hermonville 19-07-2026 - 16:14 22°C / 39.5%
h3-hermonville 19-07-2026 - 16:10 23.4°C / 36.5%
h4-hermonville 19-07-2026 - 16:08 23.2°C / 37%
h2-hermonville 19-07-2026 - 16:04 25.3°C / 35%
h1-hermonville 19-07-2026 - 16:04 21.6°C / 39.5%
h3-hermonville 19-07-2026 - 16:00 23.1°C / 36.5%
h4-hermonville 19-07-2026 - 15:58 23.1°C / 36.5%
h2-hermonville 19-07-2026 - 15:54 25.5°C / 38%
h1-hermonville 19-07-2026 - 15:54 21.4°C / 39%
h3-hermonville 19-07-2026 - 15:50 23.2°C / 37%
h2-hermonville 19-07-2026 - 15:44 25.5°C / 37%
h1-hermonville 19-07-2026 - 15:44 21.6°C / 40%
h4-hermonville 19-07-2026 - 15:38 23.5°C / 36.5%
h2-hermonville 19-07-2026 - 15:34 25.7°C / 33.5%
h1-hermonville 19-07-2026 - 15:34 22.2°C / 38%
h3-hermonville 19-07-2026 - 15:30 23.4°C / 37%
h4-hermonville 19-07-2026 - 15:28 23.3°C / 37%
h2-hermonville 19-07-2026 - 15:24 25°C / 35.5%
h1-hermonville 19-07-2026 - 15:24 21.4°C / 40.5%
h3-hermonville 19-07-2026 - 15:20 22.9°C / 39%
h4-hermonville 19-07-2026 - 15:18 23.2°C / 38%
h2-hermonville 19-07-2026 - 15:14 25.2°C / 37.5%
h1-hermonville 19-07-2026 - 15:14 21.7°C / 40.5%
h3-hermonville 19-07-2026 - 15:10 22.6°C / 39.5%
h4-hermonville 19-07-2026 - 15:08 23.1°C / 38%
h2-hermonville 19-07-2026 - 15:04 24.9°C / 36%
h1-hermonville 19-07-2026 - 15:04 21°C / 41%
h3-hermonville 19-07-2026 - 15:00 22.5°C / 39%
h4-hermonville 19-07-2026 - 14:58 23.3°C / 38.5%
h2-hermonville 19-07-2026 - 14:54 24.8°C / 40.5%
h1-hermonville 19-07-2026 - 14:54 21.4°C / 44.5%
h3-hermonville 19-07-2026 - 14:50 22.5°C / 42.5%
h4-hermonville 19-07-2026 - 14:48 23.4°C / 39.5%
h2-hermonville 19-07-2026 - 14:44 24.6°C / 40.5%
h1-hermonville 19-07-2026 - 14:44 21.1°C / 43.5%
h3-hermonville 19-07-2026 - 14:40 22.5°C / 41%
h4-hermonville 19-07-2026 - 14:38 23.5°C / 39%
h2-hermonville 19-07-2026 - 14:34 24.6°C / 40.5%
h3-hermonville 19-07-2026 - 14:30 22.9°C / 39.5%
h4-hermonville 19-07-2026 - 14:28 23.5°C / 39%
h2-hermonville 19-07-2026 - 14:24 24.6°C / 41%
h1-hermonville 19-07-2026 - 14:24 21.4°C / 44.5%
h3-hermonville 19-07-2026 - 14:20 23.1°C / 41.5%
h4-hermonville 19-07-2026 - 14:18 23.4°C / 39%
h2-hermonville 19-07-2026 - 14:14 24.3°C / 40%
h1-hermonville 19-07-2026 - 14:14 20.8°C / 45%
h3-hermonville 19-07-2026 - 14:10 22.6°C / 41%
h4-hermonville 19-07-2026 - 14:08 23.6°C / 38.5%
h2-hermonville 19-07-2026 - 14:04 24.6°C / 39.5%
h1-hermonville 19-07-2026 - 14:04 21°C / 41.5%
h3-hermonville 19-07-2026 - 14:00 22.7°C / 38.5%
h4-hermonville 19-07-2026 - 13:58 23.6°C / 36.5%
h2-hermonville 19-07-2026 - 13:54 24.1°C / 40%
h1-hermonville 19-07-2026 - 13:54 20.9°C / 40.5%
h3-hermonville 19-07-2026 - 13:50 22.5°C / 39%
h4-hermonville 19-07-2026 - 13:48 23.3°C / 37.5%
h2-hermonville 19-07-2026 - 13:44 23.8°C / 41.5%
h1-hermonville 19-07-2026 - 13:44 20.2°C / 44.5%
h3-hermonville 19-07-2026 - 13:40 22.5°C / 41.5%
h4-hermonville 19-07-2026 - 13:38 23.3°C / 40.5%
h2-hermonville 19-07-2026 - 13:34 23.7°C / 43.5%
h1-hermonville 19-07-2026 - 13:34 20°C / 46.5%
h3-hermonville 19-07-2026 - 13:30 22.1°C / 44%
h4-hermonville 19-07-2026 - 13:28 23.2°C / 41.5%
h2-hermonville 19-07-2026 - 13:24 23.7°C / 43.5%
h1-hermonville 19-07-2026 - 13:24 20.6°C / 48.5%
h3-hermonville 19-07-2026 - 13:20 22.5°C / 43%
h4-hermonville 19-07-2026 - 13:18 23.1°C / 40.5%
h2-hermonville 19-07-2026 - 13:14 23.7°C / 38.5%
h1-hermonville 19-07-2026 - 13:14 20.6°C / 44.5%
h3-hermonville 19-07-2026 - 13:10 21.9°C / 43%
h4-hermonville 19-07-2026 - 13:08 23.2°C / 40%
h1-hermonville 19-07-2026 - 13:04 20.1°C / 44.5%
h3-hermonville 19-07-2026 - 13:00 21.7°C / 41.5%
h4-hermonville 19-07-2026 - 12:58 23.5°C / 37.5%
h2-hermonville 19-07-2026 - 12:54 23°C / 45%
h1-hermonville 19-07-2026 - 12:54 19.6°C / 50%
h3-hermonville 19-07-2026 - 12:50 21.6°C / 44.5%
h4-hermonville 19-07-2026 - 12:48 23.7°C / 40%
h2-hermonville 19-07-2026 - 12:44 23.4°C / 45.5%
h1-hermonville 19-07-2026 - 12:44 20.4°C / 48.5%
h3-hermonville 19-07-2026 - 12:40 22.1°C / 44.5%
h4-hermonville 19-07-2026 - 12:38 23.8°C / 40.5%
h2-hermonville 19-07-2026 - 12:34 23.2°C / 46.5%
h1-hermonville 19-07-2026 - 12:34 20.2°C / 48.5%
h3-hermonville 19-07-2026 - 12:30 21.2°C / 47%
h4-hermonville 19-07-2026 - 12:28 24.1°C / 39.5%
h2-hermonville 19-07-2026 - 12:24 22.7°C / 48%
h1-hermonville 19-07-2026 - 12:24 19.9°C / 52.5%
h3-hermonville 19-07-2026 - 12:21 21°C / 48%
h4-hermonville 19-07-2026 - 12:18 24.9°C / 40%
h2-hermonville 19-07-2026 - 12:14 22.5°C / 47%
h1-hermonville 19-07-2026 - 12:14 19.4°C / 53%
h3-hermonville 19-07-2026 - 12:10 21.3°C / 48.5%
h4-hermonville 19-07-2026 - 12:08 25.3°C / 38.5%
h2-hermonville 19-07-2026 - 12:04 22.5°C / 48%
h1-hermonville 19-07-2026 - 12:04 20.1°C / 54%
h3-hermonville 19-07-2026 - 12:00 21.2°C / 49%
h4-hermonville 19-07-2026 - 11:58 27.1°C / 35%
h2-hermonville 19-07-2026 - 11:54 22.6°C / 47.5%
h1-hermonville 19-07-2026 - 11:54 19.8°C / 51%
h3-hermonville 19-07-2026 - 11:50 21.5°C / 47%
h4-hermonville 19-07-2026 - 11:48 27.9°C / 33.5%
h2-hermonville 19-07-2026 - 11:44 22.3°C / 48.5%
h1-hermonville 19-07-2026 - 11:44 19.5°C / 52.5%
h3-hermonville 19-07-2026 - 11:40 20.9°C / 49%
h2-hermonville 19-07-2026 - 11:34 21.9°C / 49.5%
h1-hermonville 19-07-2026 - 11:34 19.3°C / 54%
h3-hermonville 19-07-2026 - 11:30 21.1°C / 50.5%
h4-hermonville 19-07-2026 - 11:28 28.4°C / 35%
h2-hermonville 19-07-2026 - 11:24 21.6°C / 50.5%
h1-hermonville 19-07-2026 - 11:24 19.2°C / 55%
h3-hermonville 19-07-2026 - 11:20 20.7°C / 52%
h4-hermonville 19-07-2026 - 11:18 26.7°C / 37.5%
h4-hermonville 19-07-2026 - 11:08 27.2°C / 37%
h2-hermonville 19-07-2026 - 11:04 21.5°C / 53%
h1-hermonville 19-07-2026 - 11:04 18.7°C / 58%
h3-hermonville 19-07-2026 - 11:00 20.3°C / 54.5%
h4-hermonville 19-07-2026 - 10:58 27.3°C / 37%
h2-hermonville 19-07-2026 - 10:54 20.9°C / 53.5%
h1-hermonville 19-07-2026 - 10:54 18.7°C / 58.5%
h4-hermonville 19-07-2026 - 10:48 28.4°C / 37.5%
h2-hermonville 19-07-2026 - 10:44 20.5°C / 55%
h1-hermonville 19-07-2026 - 10:44 18.1°C / 63%
h3-hermonville 19-07-2026 - 10:40 20.1°C / 57.5%
h4-hermonville 19-07-2026 - 10:38 28.2°C / 38%
h2-hermonville 19-07-2026 - 10:34 20.1°C / 60.5%
h1-hermonville 19-07-2026 - 10:34 18°C / 66%
h3-hermonville 19-07-2026 - 10:30 19.7°C / 61.5%
h4-hermonville 19-07-2026 - 10:28 28.3°C / 38.5%
h2-hermonville 19-07-2026 - 10:24 20°C / 61%
h1-hermonville 19-07-2026 - 10:24 17.4°C / 68.5%
h2-hermonville 19-07-2026 - 10:14 19.7°C / 62.5%
h1-hermonville 19-07-2026 - 10:14 17.3°C / 69.5%
h4-hermonville 19-07-2026 - 10:08 27.8°C / 40%
h2-hermonville 19-07-2026 - 10:04 19.6°C / 62%
h1-hermonville 19-07-2026 - 10:04 16.8°C / 72%
h4-hermonville 19-07-2026 - 09:58 27.8°C / 40.5%
h2-hermonville 19-07-2026 - 09:54 19.2°C / 63%
h1-hermonville 19-07-2026 - 09:54 16.6°C / 73%
h3-hermonville 19-07-2026 - 09:50 19°C / 63%
h4-hermonville 19-07-2026 - 09:48 27.5°C / 41.5%
h2-hermonville 19-07-2026 - 09:44 18.8°C / 65.5%
h1-hermonville 19-07-2026 - 09:44 16.6°C / 73.5%
h3-hermonville 19-07-2026 - 09:40 19.1°C / 63.5%
h4-hermonville 19-07-2026 - 09:38 27.2°C / 41.5%
h2-hermonville 19-07-2026 - 09:34 18.3°C / 66.5%
h1-hermonville 19-07-2026 - 09:34 16.4°C / 74%
h3-hermonville 19-07-2026 - 09:30 19°C / 64%
h4-hermonville 19-07-2026 - 09:28 26.7°C / 43.5%
h2-hermonville 19-07-2026 - 09:24 18.7°C / 65.5%
h1-hermonville 19-07-2026 - 09:24 16°C / 75%
h3-hermonville 19-07-2026 - 09:20 18.5°C / 65.5%
h2-hermonville 19-07-2026 - 09:14 18.2°C / 66.5%
h1-hermonville 19-07-2026 - 09:14 16.2°C / 73.5%
h3-hermonville 19-07-2026 - 09:10 18.9°C / 64.5%
h4-hermonville 19-07-2026 - 09:08 24.4°C / 47.5%
h2-hermonville 19-07-2026 - 09:04 18.6°C / 65%
h1-hermonville 19-07-2026 - 09:04 15.9°C / 75.5%
h3-hermonville 19-07-2026 - 09:00 18.1°C / 67%
h4-hermonville 19-07-2026 - 08:58 24.4°C / 47.5%
h2-hermonville 19-07-2026 - 08:54 18.2°C / 67%
h1-hermonville 19-07-2026 - 08:54 15.8°C / 77%
h3-hermonville 19-07-2026 - 08:50 18°C / 67.5%
h4-hermonville 19-07-2026 - 08:48 22.5°C / 53%
h2-hermonville 19-07-2026 - 08:44 18.4°C / 66.5%
h1-hermonville 19-07-2026 - 08:44 15.2°C / 79%
h3-hermonville 19-07-2026 - 08:40 17.5°C / 68.5%
h4-hermonville 19-07-2026 - 08:38 21.2°C / 57%
h2-hermonville 19-07-2026 - 08:34 17.3°C / 70%
h1-hermonville 19-07-2026 - 08:34 15°C / 79.5%
h3-hermonville 19-07-2026 - 08:31 17.5°C / 69.5%
h4-hermonville 19-07-2026 - 08:28 20.2°C / 59.5%
h2-hermonville 19-07-2026 - 08:24 18.1°C / 67.5%
h1-hermonville 19-07-2026 - 08:24 14.9°C / 79.5%
h3-hermonville 19-07-2026 - 08:20 17.3°C / 70%
h4-hermonville 19-07-2026 - 08:18 19.8°C / 60.5%
h2-hermonville 19-07-2026 - 08:14 18°C / 67%
h1-hermonville 19-07-2026 - 08:14 14.8°C / 80.5%
h3-hermonville 19-07-2026 - 08:10 16.9°C / 71%
h4-hermonville 19-07-2026 - 08:08 19.4°C / 61%
h2-hermonville 19-07-2026 - 08:04 18.1°C / 67%
h1-hermonville 19-07-2026 - 08:04 14.5°C / 81%
h3-hermonville 19-07-2026 - 08:00 16.7°C / 71%
h4-hermonville 19-07-2026 - 07:58 19.4°C / 60.5%
h2-hermonville 19-07-2026 - 07:54 17.8°C / 67%
h1-hermonville 19-07-2026 - 07:54 14.5°C / 80.5%
h3-hermonville 19-07-2026 - 07:50 16.7°C / 71%
h4-hermonville 19-07-2026 - 07:48 19.2°C / 61%
h2-hermonville 19-07-2026 - 07:44 17.9°C / 67%
h1-hermonville 19-07-2026 - 07:44 14.4°C / 81%
h3-hermonville 19-07-2026 - 07:40 16.6°C / 71%
h4-hermonville 19-07-2026 - 07:38 19°C / 62%
h2-hermonville 19-07-2026 - 07:34 17.9°C / 67%
h1-hermonville 19-07-2026 - 07:34 14.3°C / 81.5%
h3-hermonville 19-07-2026 - 07:30 16.3°C / 72%
h4-hermonville 19-07-2026 - 07:28 18.7°C / 62.5%
h2-hermonville 19-07-2026 - 07:24 17.7°C / 68%
h1-hermonville 19-07-2026 - 07:24 14.1°C / 81.5%
h3-hermonville 19-07-2026 - 07:20 16.2°C / 72%
h4-hermonville 19-07-2026 - 07:18 18.8°C / 62%
h2-hermonville 19-07-2026 - 07:14 17.5°C / 67%
h1-hermonville 19-07-2026 - 07:14 14.1°C / 82%
h3-hermonville 19-07-2026 - 07:10 16.1°C / 72%
h4-hermonville 19-07-2026 - 07:08 18.3°C / 63%
h2-hermonville 19-07-2026 - 07:04 18.3°C / 65%
h1-hermonville 19-07-2026 - 07:04 13.9°C / 82.5%
h3-hermonville 19-07-2026 - 07:00 16.1°C / 72.5%
h2-hermonville 19-07-2026 - 06:54 18.7°C / 63.5%
h1-hermonville 19-07-2026 - 06:54 13.7°C / 83%
h3-hermonville 19-07-2026 - 06:50 16.2°C / 72%
h4-hermonville 19-07-2026 - 06:48 18.1°C / 64%
h2-hermonville 19-07-2026 - 06:44 18°C / 66%
h1-hermonville 19-07-2026 - 06:44 13.7°C / 83.5%
h4-hermonville 19-07-2026 - 06:38 17.8°C / 64.5%
h2-hermonville 19-07-2026 - 06:34 17.9°C / 66.5%
h1-hermonville 19-07-2026 - 06:34 13.5°C / 84.5%
h3-hermonville 19-07-2026 - 06:30 15.9°C / 73%
h4-hermonville 19-07-2026 - 06:28 17.9°C / 64.5%
h2-hermonville 19-07-2026 - 06:24 17.6°C / 67.5%
h1-hermonville 19-07-2026 - 06:24 13.2°C / 84.5%
h4-hermonville 19-07-2026 - 06:18 17.9°C / 64%
h2-hermonville 19-07-2026 - 06:14 17.6°C / 67.5%
h1-hermonville 19-07-2026 - 06:14 13.4°C / 84.5%
h3-hermonville 19-07-2026 - 06:10 15.8°C / 72.5%
h4-hermonville 19-07-2026 - 06:08 18°C / 64%
h2-hermonville 19-07-2026 - 06:04 17.7°C / 66.5%
h1-hermonville 19-07-2026 - 06:04 13.4°C / 84.5%
h3-hermonville 19-07-2026 - 06:00 16.1°C / 72%
h2-hermonville 19-07-2026 - 05:54 17.5°C / 68.5%
h1-hermonville 19-07-2026 - 05:54 13.4°C / 84%
h3-hermonville 19-07-2026 - 05:50 16°C / 72%
h4-hermonville 19-07-2026 - 05:48 18.1°C / 63.5%
h2-hermonville 19-07-2026 - 05:44 17.3°C / 68%
h1-hermonville 19-07-2026 - 05:44 13.5°C / 84%
h3-hermonville 19-07-2026 - 05:40 16.1°C / 72%
h4-hermonville 19-07-2026 - 05:38 18.2°C / 63%
h2-hermonville 19-07-2026 - 05:34 17.4°C / 68.5%
h1-hermonville 19-07-2026 - 05:34 13.6°C / 83.5%
h3-hermonville 19-07-2026 - 05:30 16.3°C / 71%
h2-hermonville 19-07-2026 - 05:24 17.9°C / 66%
h1-hermonville 19-07-2026 - 05:24 13.6°C / 83%
h3-hermonville 19-07-2026 - 05:20 16.3°C / 71%
h4-hermonville 19-07-2026 - 05:18 18.3°C / 62.5%
h2-hermonville 19-07-2026 - 05:14 17.6°C / 66.5%
h1-hermonville 19-07-2026 - 05:14 13.6°C / 83%
h3-hermonville 19-07-2026 - 05:10 16.3°C / 70.5%
h4-hermonville 19-07-2026 - 05:08 18.4°C / 62.5%
h2-hermonville 19-07-2026 - 05:04 17.1°C / 69%
h1-hermonville 19-07-2026 - 05:04 13.9°C / 82.5%
h3-hermonville 19-07-2026 - 05:00 16.3°C / 71%
h4-hermonville 19-07-2026 - 04:58 18.6°C / 62%
h2-hermonville 19-07-2026 - 04:54 16.8°C / 69%
h1-hermonville 19-07-2026 - 04:54 13.8°C / 82%
h3-hermonville 19-07-2026 - 04:50 16.3°C / 70.5%
h4-hermonville 19-07-2026 - 04:48 18.6°C / 61.5%
h2-hermonville 19-07-2026 - 04:44 17°C / 69.5%
h1-hermonville 19-07-2026 - 04:44 14°C / 82%
h3-hermonville 19-07-2026 - 04:40 16.4°C / 70.5%
h4-hermonville 19-07-2026 - 04:38 18.9°C / 61%
h2-hermonville 19-07-2026 - 04:34 17.1°C / 69%
h1-hermonville 19-07-2026 - 04:34 14.1°C / 81.5%
h3-hermonville 19-07-2026 - 04:30 16.3°C / 71%
h4-hermonville 19-07-2026 - 04:28 19°C / 61%
h2-hermonville 19-07-2026 - 04:24 17.5°C / 68%
h1-hermonville 19-07-2026 - 04:24 14.1°C / 81.5%
h3-hermonville 19-07-2026 - 04:20 16.6°C / 70.5%
h4-hermonville 19-07-2026 - 04:18 19°C / 61%
h2-hermonville 19-07-2026 - 04:14 17.6°C / 68%
h1-hermonville 19-07-2026 - 04:14 14.2°C / 81%
h3-hermonville 19-07-2026 - 04:10 16.8°C / 69.5%
h4-hermonville 19-07-2026 - 04:08 18.9°C / 61.5%
h2-hermonville 19-07-2026 - 04:04 17.8°C / 67%
h1-hermonville 19-07-2026 - 04:04 14.3°C / 81%
h3-hermonville 19-07-2026 - 04:00 17.1°C / 68.5%
h4-hermonville 19-07-2026 - 03:58 18.7°C / 61.5%
h2-hermonville 19-07-2026 - 03:54 18.3°C / 65%
h1-hermonville 19-07-2026 - 03:54 14.4°C / 80.5%
h3-hermonville 19-07-2026 - 03:50 17.2°C / 68.5%
h4-hermonville 19-07-2026 - 03:48 18.9°C / 62%
h1-hermonville 19-07-2026 - 03:44 14.4°C / 80.5%
h3-hermonville 19-07-2026 - 03:40 17.4°C / 68%
h4-hermonville 19-07-2026 - 03:38 18.9°C / 62%
h2-hermonville 19-07-2026 - 03:34 18.4°C / 65%
h1-hermonville 19-07-2026 - 03:34 14.5°C / 80%
h3-hermonville 19-07-2026 - 03:30 17.6°C / 67.5%
h4-hermonville 19-07-2026 - 03:28 18.9°C / 61.5%
h2-hermonville 19-07-2026 - 03:24 18.2°C / 65.5%
h1-hermonville 19-07-2026 - 03:24 14.5°C / 79.5%
h3-hermonville 19-07-2026 - 03:20 17.7°C / 66.5%
h4-hermonville 19-07-2026 - 03:18 18.9°C / 62%
h2-hermonville 19-07-2026 - 03:14 18.4°C / 64.5%
h1-hermonville 19-07-2026 - 03:14 14.7°C / 79%
h3-hermonville 19-07-2026 - 03:10 18°C / 65.5%
h4-hermonville 19-07-2026 - 03:08 18.8°C / 61.5%
h2-hermonville 19-07-2026 - 03:04 18.4°C / 64.5%
h1-hermonville 19-07-2026 - 03:04 14.8°C / 78.5%
h3-hermonville 19-07-2026 - 03:00 17.8°C / 66%
h4-hermonville 19-07-2026 - 02:58 19°C / 61%
h2-hermonville 19-07-2026 - 02:54 18.4°C / 64.5%
h1-hermonville 19-07-2026 - 02:54 14.8°C / 78.5%
h3-hermonville 19-07-2026 - 02:50 17.8°C / 66%
h4-hermonville 19-07-2026 - 02:48 19.3°C / 60.5%
h2-hermonville 19-07-2026 - 02:44 19°C / 62.5%
h1-hermonville 19-07-2026 - 02:44 15°C / 78%
h3-hermonville 19-07-2026 - 02:40 17.8°C / 65.5%
h4-hermonville 19-07-2026 - 02:38 19.2°C / 60.5%
h2-hermonville 19-07-2026 - 02:34 19°C / 63.5%
h1-hermonville 19-07-2026 - 02:34 15°C / 78%
h3-hermonville 19-07-2026 - 02:30 18°C / 65.5%
h4-hermonville 19-07-2026 - 02:28 19.3°C / 60%
h2-hermonville 19-07-2026 - 02:24 18.8°C / 63.5%
h1-hermonville 19-07-2026 - 02:24 15°C / 77.5%
h3-hermonville 19-07-2026 - 02:20 18.1°C / 65%
h4-hermonville 19-07-2026 - 02:18 19.3°C / 60.5%
h2-hermonville 19-07-2026 - 02:14 19.6°C / 60.5%
h1-hermonville 19-07-2026 - 02:14 15.1°C / 77%
h3-hermonville 19-07-2026 - 02:10 18.1°C / 65%
h4-hermonville 19-07-2026 - 02:08 19.7°C / 59%
h2-hermonville 19-07-2026 - 02:04 19.6°C / 61%
h1-hermonville 19-07-2026 - 02:04 15.2°C / 76.5%
h3-hermonville 19-07-2026 - 02:00 18.1°C / 65%
h4-hermonville 19-07-2026 - 01:58 19.8°C / 58.5%
h2-hermonville 19-07-2026 - 01:54 20.5°C / 58%
h1-hermonville 19-07-2026 - 01:54 15.3°C / 75.5%
h3-hermonville 19-07-2026 - 01:50 18.1°C / 65%
h4-hermonville 19-07-2026 - 01:48 19.9°C / 58%
h2-hermonville 19-07-2026 - 01:44 20.5°C / 58.5%
h1-hermonville 19-07-2026 - 01:44 15.6°C / 74.5%
h3-hermonville 19-07-2026 - 01:40 18.2°C / 64%
h4-hermonville 19-07-2026 - 01:38 19.8°C / 58.5%
h2-hermonville 19-07-2026 - 01:34 20.4°C / 57.5%
h1-hermonville 19-07-2026 - 01:34 15.9°C / 73.5%
h3-hermonville 19-07-2026 - 01:30 18.6°C / 63%
h4-hermonville 19-07-2026 - 01:28 19.8°C / 58%
h2-hermonville 19-07-2026 - 01:24 21.1°C / 55.5%
h1-hermonville 19-07-2026 - 01:24 15.9°C / 73%
h3-hermonville 19-07-2026 - 01:20 18.7°C / 63%
h4-hermonville 19-07-2026 - 01:18 20°C / 57.5%
h2-hermonville 19-07-2026 - 01:14 21.1°C / 55.5%
h1-hermonville 19-07-2026 - 01:14 16.1°C / 72%
h3-hermonville 19-07-2026 - 01:10 18.7°C / 62%
h4-hermonville 19-07-2026 - 01:08 20.1°C / 57%
h2-hermonville 19-07-2026 - 01:04 21.2°C / 56.5%
h1-hermonville 19-07-2026 - 01:04 16.3°C / 70.5%
h3-hermonville 19-07-2026 - 01:00 18.7°C / 62%
h4-hermonville 19-07-2026 - 00:58 20.5°C / 56%
h2-hermonville 19-07-2026 - 00:54 21.9°C / 54.5%
h1-hermonville 19-07-2026 - 00:54 16.6°C / 69.5%
h3-hermonville 19-07-2026 - 00:50 18.7°C / 61.5%
h4-hermonville 19-07-2026 - 00:48 20.7°C / 55%
h2-hermonville 19-07-2026 - 00:44 22.2°C / 53%
h1-hermonville 19-07-2026 - 00:44 16.8°C / 68.5%
h3-hermonville 19-07-2026 - 00:40 19.1°C / 60.5%
h4-hermonville 19-07-2026 - 00:38 20.8°C / 55%
h2-hermonville 19-07-2026 - 00:34 22.4°C / 52.5%
h1-hermonville 19-07-2026 - 00:34 17.1°C / 68%
h3-hermonville 19-07-2026 - 00:30 19.4°C / 60%
h4-hermonville 19-07-2026 - 00:28 20.8°C / 55%
h2-hermonville 19-07-2026 - 00:24 22.2°C / 53.5%
h1-hermonville 19-07-2026 - 00:24 17.3°C / 67%
h3-hermonville 19-07-2026 - 00:20 19.5°C / 60.5%
h4-hermonville 19-07-2026 - 00:18 20.9°C / 55.5%
h2-hermonville 19-07-2026 - 00:14 22.7°C / 52%
h1-hermonville 19-07-2026 - 00:14 17.4°C / 66.5%
h3-hermonville 19-07-2026 - 00:10 19.4°C / 60%
h4-hermonville 19-07-2026 - 00:08 21.1°C / 54.5%
h2-hermonville 19-07-2026 - 00:04 22.8°C / 51%
h1-hermonville 19-07-2026 - 00:04 17.5°C / 66.5%
h3-hermonville 19-07-2026 - 00:00 19.6°C / 59.5%